sensor_id;sensor_type;location;lat;lon;timestamp;temperature;humidity
1075;DHT22;526;51.392;12.448;2024-02-04T05:01:09;8.60;97.30
1075;DHT22;526;51.392;12.448;2024-02-04T05:04:18;8.60;97.30
1075;DHT22;526;51.392;12.448;2024-02-04T05:07:16;8.60;97.30
1075;DHT22;526;51.392;12.448;2024-02-04T05:09:50;8.60;97.30
1075;DHT22;526;51.392;12.448;2024-02-04T05:12:18;8.60;97.30
1075;DHT22;526;51.392;12.448;2024-02-04T05:15:10;8.60;97.30
1075;DHT22;526;51.392;12.448;2024-02-04T05:17:41;8.60;97.30
1075;DHT22;526;51.392;12.448;2024-02-04T05:20:38;8.60;97.30
1075;DHT22;526;51.392;12.448;2024-02-04T05:23:10;8.60;97.30
1075;DHT22;526;51.392;12.448;2024-02-04T05:25:38;8.60;97.30
1075;DHT22;526;51.392;12.448;2024-02-04T05:28:07;8.60;97.30
1075;DHT22;526;51.392;12.448;2024-02-04T05:30:35;8.60;97.30
1075;DHT22;526;51.392;12.448;2024-02-04T05:33:16;8.60;97.30
1075;DHT22;526;51.392;12.448;2024-02-04T05:35:56;8.60;97.30
1075;DHT22;526;51.392;12.448;2024-02-04T05:38:27;8.60;97.30
1075;DHT22;526;51.392;12.448;2024-02-04T05:40:59;8.50;97.30
1075;DHT22;526;51.392;12.448;2024-02-04T05:43:59;8.50;97.30
1075;DHT22;526;51.392;12.448;2024-02-04T05:46:28;8.50;97.30
1075;DHT22;526;51.392;12.448;2024-02-04T05:49:09;8.50;97.30
1075;DHT22;526;51.392;12.448;2024-02-04T05:51:40;8.50;97.30
1075;DHT22;526;51.392;12.448;2024-02-04T05:54:20;8.50;97.30
1075;DHT22;526;51.392;12.448;2024-02-04T06:00:10;8.40;97.30
1075;DHT22;526;51.392;12.448;2024-02-04T06:05:49;8.40;97.30
1075;DHT22;526;51.392;12.448;2024-02-04T06:11:50;8.50;97.30
1075;DHT22;526;51.392;12.448;2024-02-04T06:15:00;8.60;97.30
1075;DHT22;526;51.392;12.448;2024-02-04T06:21:47;8.60;97.30
1075;DHT22;526;51.392;12.448;2024-02-04T06:31:30;8.70;97.30
1075;DHT22;526;51.392;12.448;2024-02-04T06:34:10;8.70;97.30
1075;DHT22;526;51.392;12.448;2024-02-04T06:36:50;8.70;97.30
1075;DHT22;526;51.392;12.448;2024-02-04T06:39:39;8.70;97.30
1075;DHT22;526;51.392;12.448;2024-02-04T06:42:07;8.80;97.30
1075;DHT22;526;51.392;12.448;2024-02-04T06:48:00;8.80;97.30
1075;DHT22;526;51.392;12.448;2024-02-04T06:50:36;8.90;97.30
1075;DHT22;526;51.392;12.448;2024-02-04T06:53:20;8.90;97.30
1075;DHT22;526;51.392;12.448;2024-02-04T06:58:50;8.90;97.30
1075;DHT22;526;51.392;12.448;2024-02-04T07:01:30;9.00;97.30
1075;DHT22;526;51.392;12.448;2024-02-04T07:04:09;9.00;97.30
1075;DHT22;526;51.392;12.448;2024-02-04T07:06:57;9.00;97.30
1075;DHT22;526;51.392;12.448;2024-02-04T07:09:50;9.10;97.30
1075;DHT22;526;51.392;12.448;2024-02-04T07:12:19;9.10;97.30
1075;DHT22;526;51.392;12.448;2024-02-04T07:14:50;9.10;97.30
1075;DHT22;526;51.392;12.448;2024-02-04T07:17:18;9.10;97.30
1075;DHT22;526;51.392;12.448;2024-02-04T07:19:50;9.20;97.30
1075;DHT22;526;51.392;12.448;2024-02-04T07:22:16;9.20;97.30
1075;DHT22;526;51.392;12.448;2024-02-04T07:24:41;9.20;97.30
1075;DHT22;526;51.392;12.448;2024-02-04T07:27:07;9.20;97.30
1075;DHT22;526;51.392;12.448;2024-02-04T07:29:33;9.20;97.30
1075;DHT22;526;51.392;12.448;2024-02-04T07:31:58;9.20;97.30
1075;DHT22;526;51.392;12.448;2024-02-04T07:34:24;9.30;97.30
1075;DHT22;526;51.392;12.448;2024-02-04T07:36:50;9.30;97.30
1075;DHT22;526;51.392;12.448;2024-02-04T07:39:17;9.30;97.30
1075;DHT22;526;51.392;12.448;2024-02-04T07:41:43;9.30;97.30
1075;DHT22;526;51.392;12.448;2024-02-04T07:44:08;9.30;97.30
1075;DHT22;526;51.392;12.448;2024-02-04T07:46:34;9.30;97.30
1075;DHT22;526;51.392;12.448;2024-02-04T07:49:00;9.30;97.30
1075;DHT22;526;51.392;12.448;2024-02-04T07:51:25;9.30;97.30
1075;DHT22;526;51.392;12.448;2024-02-04T07:53:51;9.40;97.30
1075;DHT22;526;51.392;12.448;2024-02-04T07:56:16;9.40;97.30
1075;DHT22;526;51.392;12.448;2024-02-04T07:58:42;9.40;97.30
1075;DHT22;526;51.392;12.448;2024-02-04T08:01:07;9.40;97.30
1075;DHT22;526;51.392;12.448;2024-02-04T08:03:33;9.50;97.30
1075;DHT22;526;51.392;12.448;2024-02-04T08:05:58;9.50;97.30
1075;DHT22;526;51.392;12.448;2024-02-04T08:08:24;9.50;97.30
1075;DHT22;526;51.392;12.448;2024-02-04T08:10:49;9.50;97.30
1075;DHT22;526;51.392;12.448;2024-02-04T08:13:15;9.60;97.30
1075;DHT22;526;51.392;12.448;2024-02-04T08:15:40;9.60;97.30
1075;DHT22;526;51.392;12.448;2024-02-04T08:18:06;9.60;97.30
1075;DHT22;526;51.392;12.448;2024-02-04T08:20:31;9.60;97.30
1075;DHT22;526;51.392;12.448;2024-02-04T08:22:57;9.60;97.30
1075;DHT22;526;51.392;12.448;2024-02-04T08:25:22;9.60;97.30
1075;DHT22;526;51.392;12.448;2024-02-04T08:27:48;9.60;97.30
1075;DHT22;526;51.392;12.448;2024-02-04T08:30:14;9.70;97.30
1075;DHT22;526;51.392;12.448;2024-02-04T08:32:39;9.70;97.30
1075;DHT22;526;51.392;12.448;2024-02-04T08:35:05;9.70;97.30
1075;DHT22;526;51.392;12.448;2024-02-04T08:37:34;9.70;97.30
1075;DHT22;526;51.392;12.448;2024-02-04T08:40:01;9.80;97.30
1075;DHT22;526;51.392;12.448;2024-02-04T08:42:26;9.80;97.30
1075;DHT22;526;51.392;12.448;2024-02-04T08:44:52;9.80;97.30
1075;DHT22;526;51.392;12.448;2024-02-04T08:47:17;9.80;97.30
1075;DHT22;526;51.392;12.448;2024-02-04T08:49:44;9.80;97.30
1075;DHT22;526;51.392;12.448;2024-02-04T08:52:09;9.80;97.30
1075;DHT22;526;51.392;12.448;2024-02-04T08:54:36;9.80;97.30
1075;DHT22;526;51.392;12.448;2024-02-04T08:57:02;9.80;97.30
1075;DHT22;526;51.392;12.448;2024-02-04T08:59:27;9.80;97.30
1075;DHT22;526;51.392;12.448;2024-02-04T09:01:53;9.80;97.30
1075;DHT22;526;51.392;12.448;2024-02-04T09:04:18;9.80;97.30
1075;DHT22;526;51.392;12.448;2024-02-04T09:06:44;9.80;97.30
1075;DHT22;526;51.392;12.448;2024-02-04T09:09:10;9.80;97.30
1075;DHT22;526;51.392;12.448;2024-02-04T09:11:35;9.90;97.30
1075;DHT22;526;51.392;12.448;2024-02-04T09:14:01;9.90;97.30
1075;DHT22;526;51.392;12.448;2024-02-04T09:16:27;9.90;97.30
1075;DHT22;526;51.392;12.448;2024-02-04T09:18:53;9.90;97.30
1075;DHT22;526;51.392;12.448;2024-02-04T09:21:18;9.90;97.30
1075;DHT22;526;51.392;12.448;2024-02-04T09:23:44;9.90;97.30
1075;DHT22;526;51.392;12.448;2024-02-04T09:26:09;9.90;97.30
1075;DHT22;526;51.392;12.448;2024-02-04T09:28:35;9.90;97.30
1075;DHT22;526;51.392;12.448;2024-02-04T09:31:00;9.90;97.30
1075;DHT22;526;51.392;12.448;2024-02-04T09:33:26;10.00;97.30
1075;DHT22;526;51.392;12.448;2024-02-04T09:35:52;10.00;97.30
1075;DHT22;526;51.392;12.448;2024-02-04T09:38:17;10.00;97.30
1075;DHT22;526;51.392;12.448;2024-02-04T09:40:43;9.90;97.30
1075;DHT22;526;51.392;12.448;2024-02-04T09:43:09;9.90;97.30
1075;DHT22;526;51.392;12.448;2024-02-04T09:45:35;9.80;97.30
1075;DHT22;526;51.392;12.448;2024-02-04T09:48:02;9.80;97.30
1075;DHT22;526;51.392;12.448;2024-02-04T09:50:28;9.70;97.30
1075;DHT22;526;51.392;12.448;2024-02-04T09:52:58;9.70;97.30
1075;DHT22;526;51.392;12.448;2024-02-04T09:55:26;9.70;97.30
1075;DHT22;526;51.392;12.448;2024-02-04T09:57:52;9.60;97.30
1075;DHT22;526;51.392;12.448;2024-02-04T10:00:21;9.60;97.30
1075;DHT22;526;51.392;12.448;2024-02-04T10:02:47;9.60;97.30
1075;DHT22;526;51.392;12.448;2024-02-04T10:05:14;9.60;97.30
1075;DHT22;526;51.392;12.448;2024-02-04T10:07:40;9.60;97.30
1075;DHT22;526;51.392;12.448;2024-02-04T10:10:07;9.60;97.30
1075;DHT22;526;51.392;12.448;2024-02-04T10:12:33;9.60;97.30
1075;DHT22;526;51.392;12.448;2024-02-04T10:15:00;9.60;97.30
1075;DHT22;526;51.392;12.448;2024-02-04T10:17:27;9.60;97.30
1075;DHT22;526;51.392;12.448;2024-02-04T10:19:53;9.70;97.30
1075;DHT22;526;51.392;12.448;2024-02-04T10:22:18;9.70;97.30
1075;DHT22;526;51.392;12.448;2024-02-04T10:24:44;9.70;97.30
1075;DHT22;526;51.392;12.448;2024-02-04T10:27:12;9.70;97.30
1075;DHT22;526;51.392;12.448;2024-02-04T10:29:37;9.70;97.30
1075;DHT22;526;51.392;12.448;2024-02-04T10:32:03;9.70;97.30
1075;DHT22;526;51.392;12.448;2024-02-04T10:34:29;9.70;97.30
1075;DHT22;526;51.392;12.448;2024-02-04T10:36:56;9.80;97.30
1075;DHT22;526;51.392;12.448;2024-02-04T10:39:21;9.80;97.30
1075;DHT22;526;51.392;12.448;2024-02-04T10:41:50;9.80;97.30
1075;DHT22;526;51.392;12.448;2024-02-04T10:44:21;9.90;97.30
1075;DHT22;526;51.392;12.448;2024-02-04T10:46:47;9.90;97.30
1075;DHT22;526;51.392;12.448;2024-02-04T10:49:15;9.90;97.30
1075;DHT22;526;51.392;12.448;2024-02-04T10:51:42;9.90;97.30
1075;DHT22;526;51.392;12.448;2024-02-04T10:54:08;9.90;97.30
1075;DHT22;526;51.392;12.448;2024-02-04T10:56:38;9.90;97.30
1075;DHT22;526;51.392;12.448;2024-02-04T10:59:07;9.90;97.30
1075;DHT22;526;51.392;12.448;2024-02-04T11:01:35;9.90;97.30
1075;DHT22;526;51.392;12.448;2024-02-04T11:04:02;9.80;97.30
1075;DHT22;526;51.392;12.448;2024-02-04T11:06:29;9.80;97.30
1075;DHT22;526;51.392;12.448;2024-02-04T11:08:56;9.80;97.30
1075;DHT22;526;51.392;12.448;2024-02-04T11:11:24;9.70;97.30
1075;DHT22;526;51.392;12.448;2024-02-04T11:13:54;9.70;97.30
1075;DHT22;526;51.392;12.448;2024-02-04T11:19:15;9.70;97.30
1075;DHT22;526;51.392;12.448;2024-02-04T11:27:12;9.60;97.30
1075;DHT22;526;51.392;12.448;2024-02-04T11:29:38;9.60;97.30
1075;DHT22;526;51.392;12.448;2024-02-04T11:32:05;9.60;97.30
1075;DHT22;526;51.392;12.448;2024-02-04T11:34:33;9.60;97.30
1075;DHT22;526;51.392;12.448;2024-02-04T11:36:59;9.60;97.30
1075;DHT22;526;51.392;12.448;2024-02-04T11:39:24;9.60;97.30
1075;DHT22;526;51.392;12.448;2024-02-04T11:41:51;9.70;97.30
1075;DHT22;526;51.392;12.448;2024-02-04T11:44:21;9.70;97.30
1075;DHT22;526;51.392;12.448;2024-02-04T11:46:47;9.70;97.30
1075;DHT22;526;51.392;12.448;2024-02-04T11:49:19;9.70;97.30
1075;DHT22;526;51.392;12.448;2024-02-04T11:51:53;9.80;97.30
1075;DHT22;526;51.392;12.448;2024-02-04T11:54:20;9.80;97.30
1075;DHT22;526;51.392;12.448;2024-02-04T11:56:49;9.80;97.30
1075;DHT22;526;51.392;12.448;2024-02-04T11:59:19;9.90;97.30
1075;DHT22;526;51.392;12.448;2024-02-04T12:01:47;9.90;97.30
1075;DHT22;526;51.392;12.448;2024-02-04T12:04:15;10.00;97.30
1075;DHT22;526;51.392;12.448;2024-02-04T12:06:41;10.10;97.30
1075;DHT22;526;51.392;12.448;2024-02-04T12:09:08;10.20;97.30
1075;DHT22;526;51.392;12.448;2024-02-04T12:11:37;10.10;97.30
1075;DHT22;526;51.392;12.448;2024-02-04T12:14:07;10.10;97.30
1075;DHT22;526;51.392;12.448;2024-02-04T12:16:36;10.20;97.30
1075;DHT22;526;51.392;12.448;2024-02-04T12:19:02;10.10;97.30
1075;DHT22;526;51.392;12.448;2024-02-04T12:21:32;10.10;97.30
1075;DHT22;526;51.392;12.448;2024-02-04T12:23:58;10.10;97.30
1075;DHT22;526;51.392;12.448;2024-02-04T12:26:24;10.10;97.30
1075;DHT22;526;51.392;12.448;2024-02-04T12:28:50;10.10;97.30
1075;DHT22;526;51.392;12.448;2024-02-04T12:31:17;10.10;97.30
1075;DHT22;526;51.392;12.448;2024-02-04T12:33:52;10.10;97.30
1075;DHT22;526;51.392;12.448;2024-02-04T12:36:17;10.10;97.30
1075;DHT22;526;51.392;12.448;2024-02-04T12:38:50;10.00;97.30
1075;DHT22;526;51.392;12.448;2024-02-04T12:41:16;10.00;97.30
1075;DHT22;526;51.392;12.448;2024-02-04T12:43:42;10.10;97.30
1075;DHT22;526;51.392;12.448;2024-02-04T12:46:07;10.10;97.30
1075;DHT22;526;51.392;12.448;2024-02-04T12:48:34;10.10;97.30
1075;DHT22;526;51.392;12.448;2024-02-04T12:51:00;10.20;97.30
1075;DHT22;526;51.392;12.448;2024-02-04T12:53:26;10.30;97.30
1075;DHT22;526;51.392;12.448;2024-02-04T12:55:58;10.30;97.30
1075;DHT22;526;51.392;12.448;2024-02-04T12:58:24;10.40;97.30
1075;DHT22;526;51.392;12.448;2024-02-04T13:01:00;10.40;97.30
1075;DHT22;526;51.392;12.448;2024-02-04T13:03:26;10.40;97.30
1075;DHT22;526;51.392;12.448;2024-02-04T13:05:57;10.40;97.30
1075;DHT22;526;51.392;12.448;2024-02-04T13:08:23;10.40;97.30
1075;DHT22;526;51.392;12.448;2024-02-04T13:10:56;10.50;97.30
1075;DHT22;526;51.392;12.448;2024-02-04T13:13:21;10.40;97.30
1075;DHT22;526;51.392;12.448;2024-02-04T13:15:47;10.40;97.30
1075;DHT22;526;51.392;12.448;2024-02-04T13:18:13;10.40;97.30
1075;DHT22;526;51.392;12.448;2024-02-04T13:20:41;10.40;97.30
1075;DHT22;526;51.392;12.448;2024-02-04T13:23:10;10.40;97.30
1075;DHT22;526;51.392;12.448;2024-02-04T13:25:36;10.40;97.30
1075;DHT22;526;51.392;12.448;2024-02-04T13:28:02;10.40;97.30
1075;DHT22;526;51.392;12.448;2024-02-04T13:30:28;10.40;97.30
1075;DHT22;526;51.392;12.448;2024-02-04T13:32:54;10.30;97.30
1075;DHT22;526;51.392;12.448;2024-02-04T13:35:19;10.30;97.30
1075;DHT22;526;51.392;12.448;2024-02-04T13:37:47;10.30;97.30
1075;DHT22;526;51.392;12.448;2024-02-04T13:40:19;10.40;97.30
1075;DHT22;526;51.392;12.448;2024-02-04T13:42:45;10.30;97.30
1075;DHT22;526;51.392;12.448;2024-02-04T13:45:12;10.30;97.30
1075;DHT22;526;51.392;12.448;2024-02-04T13:47:41;10.30;97.30
1075;DHT22;526;51.392;12.448;2024-02-04T13:50:09;10.20;97.30
1075;DHT22;526;51.392;12.448;2024-02-04T13:52:35;10.20;97.30
1075;DHT22;526;51.392;12.448;2024-02-04T13:55:02;10.20;97.30
1075;DHT22;526;51.392;12.448;2024-02-04T13:57:27;10.10;97.30
1075;DHT22;526;51.392;12.448;2024-02-04T13:59:54;10.10;97.30
1075;DHT22;526;51.392;12.448;2024-02-04T14:02:19;10.10;97.30
1075;DHT22;526;51.392;12.448;2024-02-04T14:04:45;10.10;97.30
1075;DHT22;526;51.392;12.448;2024-02-04T14:07:12;10.10;97.30
1075;DHT22;526;51.392;12.448;2024-02-04T14:09:37;10.00;97.30
1075;DHT22;526;51.392;12.448;2024-02-04T14:12:03;10.00;97.30
1075;DHT22;526;51.392;12.448;2024-02-04T14:14:29;10.00;97.30
1075;DHT22;526;51.392;12.448;2024-02-04T14:16:55;10.00;97.30
1075;DHT22;526;51.392;12.448;2024-02-04T14:19:21;10.00;97.30
1075;DHT22;526;51.392;12.448;2024-02-04T14:21:46;10.00;97.30
1075;DHT22;526;51.392;12.448;2024-02-04T14:24:11;10.00;97.30
1075;DHT22;526;51.392;12.448;2024-02-04T14:26:38;10.00;97.30
1075;DHT22;526;51.392;12.448;2024-02-04T14:29:03;10.00;97.30
1075;DHT22;526;51.392;12.448;2024-02-04T14:31:29;9.90;97.30
1075;DHT22;526;51.392;12.448;2024-02-04T14:33:54;9.90;97.30
1075;DHT22;526;51.392;12.448;2024-02-04T14:36:21;9.90;97.30
1075;DHT22;526;51.392;12.448;2024-02-04T14:38:46;9.90;97.30
1075;DHT22;526;51.392;12.448;2024-02-04T14:41:12;9.80;97.30
1075;DHT22;526;51.392;12.448;2024-02-04T14:43:37;9.80;97.30
1075;DHT22;526;51.392;12.448;2024-02-04T14:46:04;9.80;97.30
1075;DHT22;526;51.392;12.448;2024-02-04T14:48:29;9.80;97.30
1075;DHT22;526;51.392;12.448;2024-02-04T14:50:55;9.80;97.30
1075;DHT22;526;51.392;12.448;2024-02-04T14:53:22;9.80;97.30
1075;DHT22;526;51.392;12.448;2024-02-04T14:55:48;9.80;97.30
1075;DHT22;526;51.392;12.448;2024-02-04T14:58:13;9.80;97.30
1075;DHT22;526;51.392;12.448;2024-02-04T15:00:39;9.80;97.30
1075;DHT22;526;51.392;12.448;2024-02-04T15:03:05;9.70;97.30
1075;DHT22;526;51.392;12.448;2024-02-04T15:05:30;9.70;97.30
1075;DHT22;526;51.392;12.448;2024-02-04T15:07:56;9.70;97.30
1075;DHT22;526;51.392;12.448;2024-02-04T15:10:21;9.70;97.30
1075;DHT22;526;51.392;12.448;2024-02-04T15:12:48;9.70;97.30
1075;DHT22;526;51.392;12.448;2024-02-04T15:15:15;9.70;97.30
1075;DHT22;526;51.392;12.448;2024-02-04T15:17:41;9.70;97.30
1075;DHT22;526;51.392;12.448;2024-02-04T15:20:07;9.70;97.30
1075;DHT22;526;51.392;12.448;2024-02-04T15:22:34;9.70;97.30
1075;DHT22;526;51.392;12.448;2024-02-04T15:25:00;9.60;97.30
1075;DHT22;526;51.392;12.448;2024-02-04T15:27:27;9.60;97.30
1075;DHT22;526;51.392;12.448;2024-02-04T15:29:54;9.60;97.30
1075;DHT22;526;51.392;12.448;2024-02-04T15:32:21;9.50;97.30
1075;DHT22;526;51.392;12.448;2024-02-04T15:34:47;9.40;97.30
1075;DHT22;526;51.392;12.448;2024-02-04T15:37:13;9.40;97.30
1075;DHT22;526;51.392;12.448;2024-02-04T15:39:39;9.40;97.30
1075;DHT22;526;51.392;12.448;2024-02-04T15:42:05;9.30;97.30
1075;DHT22;526;51.392;12.448;2024-02-04T15:44:31;9.30;97.30
1075;DHT22;526;51.392;12.448;2024-02-04T15:46:59;9.30;97.30
1075;DHT22;526;51.392;12.448;2024-02-04T15:49:26;9.30;97.30
1075;DHT22;526;51.392;12.448;2024-02-04T15:51:52;9.30;97.30
1075;DHT22;526;51.392;12.448;2024-02-04T15:54:18;9.30;97.30
1075;DHT22;526;51.392;12.448;2024-02-04T15:56:49;9.30;97.30
1075;DHT22;526;51.392;12.448;2024-02-04T15:59:18;9.20;97.30
1075;DHT22;526;51.392;12.448;2024-02-04T16:01:46;9.20;97.30
1075;DHT22;526;51.392;12.448;2024-02-04T16:04:12;9.20;97.30
1075;DHT22;526;51.392;12.448;2024-02-04T16:06:41;9.10;97.30
1075;DHT22;526;51.392;12.448;2024-02-04T16:09:07;9.00;97.30
1075;DHT22;526;51.392;12.448;2024-02-04T16:11:52;9.00;97.30
1075;DHT22;526;51.392;12.448;2024-02-04T16:14:24;8.90;97.30
1075;DHT22;526;51.392;12.448;2024-02-04T16:16:55;8.90;97.30
1075;DHT22;526;51.392;12.448;2024-02-04T16:19:26;8.90;97.30
1075;DHT22;526;51.392;12.448;2024-02-04T16:21:52;8.80;97.30
1075;DHT22;526;51.392;12.448;2024-02-04T16:24:18;8.80;97.30
1075;DHT22;526;51.392;12.448;2024-02-04T16:26:44;8.80;97.30
1075;DHT22;526;51.392;12.448;2024-02-04T16:29:09;8.70;97.30
1075;DHT22;526;51.392;12.448;2024-02-04T16:31:35;8.70;97.30
1075;DHT22;526;51.392;12.448;2024-02-04T16:34:00;8.70;97.30
1075;DHT22;526;51.392;12.448;2024-02-04T16:36:26;8.70;97.30
1075;DHT22;526;51.392;12.448;2024-02-04T16:38:53;8.70;97.30
1075;DHT22;526;51.392;12.448;2024-02-04T16:41:19;8.70;97.30
1075;DHT22;526;51.392;12.448;2024-02-04T16:43:44;8.70;97.30
1075;DHT22;526;51.392;12.448;2024-02-04T16:46:10;8.70;97.30
1075;DHT22;526;51.392;12.448;2024-02-04T16:48:36;8.70;97.30
1075;DHT22;526;51.392;12.448;2024-02-04T16:51:01;8.70;97.30
1075;DHT22;526;51.392;12.448;2024-02-04T16:53:27;8.70;97.30
1075;DHT22;526;51.392;12.448;2024-02-04T16:55:52;8.60;97.30
1075;DHT22;526;51.392;12.448;2024-02-04T16:58:18;8.60;97.30
1075;DHT22;526;51.392;12.448;2024-02-04T17:00:43;8.60;97.30
1075;DHT22;526;51.392;12.448;2024-02-04T17:03:10;8.60;97.30
1075;DHT22;526;51.392;12.448;2024-02-04T17:05:36;8.60;97.30
1075;DHT22;526;51.392;12.448;2024-02-04T17:08:02;8.60;97.30
1075;DHT22;526;51.392;12.448;2024-02-04T17:10:29;8.60;97.30
1075;DHT22;526;51.392;12.448;2024-02-04T17:12:55;8.60;97.30
1075;DHT22;526;51.392;12.448;2024-02-04T17:15:21;8.60;97.30
1075;DHT22;526;51.392;12.448;2024-02-04T17:17:59;8.60;97.30
1075;DHT22;526;51.392;12.448;2024-02-04T17:20:31;8.60;97.30
1075;DHT22;526;51.392;12.448;2024-02-04T17:22:59;8.60;97.30
1075;DHT22;526;51.392;12.448;2024-02-04T17:25:30;8.60;97.30
1075;DHT22;526;51.392;12.448;2024-02-04T17:27:58;8.60;97.30
1075;DHT22;526;51.392;12.448;2024-02-04T17:30:29;8.60;97.30
1075;DHT22;526;51.392;12.448;2024-02-04T17:32:55;8.60;97.30
1075;DHT22;526;51.392;12.448;2024-02-04T17:35:20;8.60;97.30
1075;DHT22;526;51.392;12.448;2024-02-04T17:37:48;8.60;97.30
1075;DHT22;526;51.392;12.448;2024-02-04T17:40:15;8.60;97.30
1075;DHT22;526;51.392;12.448;2024-02-04T17:42:40;8.60;97.30
1075;DHT22;526;51.392;12.448;2024-02-04T17:45:06;8.60;97.30
1075;DHT22;526;51.392;12.448;2024-02-04T17:47:34;8.60;97.30
1075;DHT22;526;51.392;12.448;2024-02-04T17:50:01;8.60;97.30
1075;DHT22;526;51.392;12.448;2024-02-04T17:52:27;8.60;97.30
1075;DHT22;526;51.392;12.448;2024-02-04T17:54:55;8.60;97.30
1075;DHT22;526;51.392;12.448;2024-02-04T17:57:23;8.60;97.30
1075;DHT22;526;51.392;12.448;2024-02-04T17:59:49;8.60;97.30
1075;DHT22;526;51.392;12.448;2024-02-04T18:02:15;8.60;97.30
1075;DHT22;526;51.392;12.448;2024-02-04T18:04:44;8.60;97.30
1075;DHT22;526;51.392;12.448;2024-02-04T18:07:10;8.60;97.30
1075;DHT22;526;51.392;12.448;2024-02-04T18:09:36;8.60;97.30
1075;DHT22;526;51.392;12.448;2024-02-04T18:12:07;8.60;97.30
1075;DHT22;526;51.392;12.448;2024-02-04T18:14:33;8.60;97.30
1075;DHT22;526;51.392;12.448;2024-02-04T18:16:59;8.60;97.30
1075;DHT22;526;51.392;12.448;2024-02-04T18:19:40;8.60;97.30
1075;DHT22;526;51.392;12.448;2024-02-04T18:22:10;8.60;97.30
1075;DHT22;526;51.392;12.448;2024-02-04T18:24:36;8.60;97.30
1075;DHT22;526;51.392;12.448;2024-02-04T18:27:07;8.60;97.30
1075;DHT22;526;51.392;12.448;2024-02-04T18:29:33;8.60;97.30
1075;DHT22;526;51.392;12.448;2024-02-04T18:31:59;8.60;97.30
1075;DHT22;526;51.392;12.448;2024-02-04T18:34:24;8.50;97.30
1075;DHT22;526;51.392;12.448;2024-02-04T18:36:50;8.50;97.30
1075;DHT22;526;51.392;12.448;2024-02-04T18:39:15;8.50;97.30
1075;DHT22;526;51.392;12.448;2024-02-04T18:41:42;8.50;97.30
1075;DHT22;526;51.392;12.448;2024-02-04T18:44:11;8.50;97.30
1075;DHT22;526;51.392;12.448;2024-02-04T18:46:40;8.40;97.30
1075;DHT22;526;51.392;12.448;2024-02-04T18:49:08;8.40;97.30
1075;DHT22;526;51.392;12.448;2024-02-04T18:51:39;8.40;97.30
1075;DHT22;526;51.392;12.448;2024-02-04T18:54:05;8.40;97.30
1075;DHT22;526;51.392;12.448;2024-02-04T18:56:31;8.40;97.30
1075;DHT22;526;51.392;12.448;2024-02-04T18:58:56;8.40;97.30
1075;DHT22;526;51.392;12.448;2024-02-04T19:01:22;8.40;97.30
1075;DHT22;526;51.392;12.448;2024-02-04T19:03:48;8.40;97.30
1075;DHT22;526;51.392;12.448;2024-02-04T19:06:28;8.40;97.30
1075;DHT22;526;51.392;12.448;2024-02-04T19:08:54;8.40;97.30
1075;DHT22;526;51.392;12.448;2024-02-04T19:11:19;8.40;97.30
1075;DHT22;526;51.392;12.448;2024-02-04T19:13:45;8.30;97.30
1075;DHT22;526;51.392;12.448;2024-02-04T19:16:18;8.30;97.30
1075;DHT22;526;51.392;12.448;2024-02-04T19:18:43;8.30;97.30
1075;DHT22;526;51.392;12.448;2024-02-04T19:21:09;8.30;97.30
1075;DHT22;526;51.392;12.448;2024-02-04T19:23:34;8.20;97.30
1075;DHT22;526;51.392;12.448;2024-02-04T19:26:00;8.20;97.30
1075;DHT22;526;51.392;12.448;2024-02-04T19:28:25;8.20;97.30
1075;DHT22;526;51.392;12.448;2024-02-04T19:30:51;8.10;97.30
1075;DHT22;526;51.392;12.448;2024-02-04T19:33:16;8.20;97.30
1075;DHT22;526;51.392;12.448;2024-02-04T19:35:42;8.20;97.30
1075;DHT22;526;51.392;12.448;2024-02-04T19:38:07;8.20;97.30
1075;DHT22;526;51.392;12.448;2024-02-04T19:40:33;8.20;97.30
1075;DHT22;526;51.392;12.448;2024-02-04T19:42:58;8.20;97.30
1075;DHT22;526;51.392;12.448;2024-02-04T19:45:24;8.20;97.30
1075;DHT22;526;51.392;12.448;2024-02-04T19:47:49;8.20;97.30
1075;DHT22;526;51.392;12.448;2024-02-04T19:50:15;8.20;97.30
1075;DHT22;526;51.392;12.448;2024-02-04T19:52:41;8.20;97.30
1075;DHT22;526;51.392;12.448;2024-02-04T19:55:06;8.20;97.30
1075;DHT22;526;51.392;12.448;2024-02-04T19:57:33;8.20;97.30
1075;DHT22;526;51.392;12.448;2024-02-04T19:59:59;8.30;97.30
1075;DHT22;526;51.392;12.448;2024-02-04T20:02:28;8.30;97.30
1075;DHT22;526;51.392;12.448;2024-02-04T20:04:54;8.30;97.30
1075;DHT22;526;51.392;12.448;2024-02-04T20:07:20;8.40;97.30
1075;DHT22;526;51.392;12.448;2024-02-04T20:09:46;8.40;97.30
1075;DHT22;526;51.392;12.448;2024-02-04T20:12:14;8.40;97.30
1075;DHT22;526;51.392;12.448;2024-02-04T20:14:40;8.50;97.30
1075;DHT22;526;51.392;12.448;2024-02-04T20:17:06;8.50;97.30
1075;DHT22;526;51.392;12.448;2024-02-04T20:19:32;8.50;97.30
1075;DHT22;526;51.392;12.448;2024-02-04T20:21:57;8.60;97.30
1075;DHT22;526;51.392;12.448;2024-02-04T20:24:24;8.60;97.30
1075;DHT22;526;51.392;12.448;2024-02-04T20:26:49;8.60;97.30
1075;DHT22;526;51.392;12.448;2024-02-04T20:29:15;8.60;97.30
1075;DHT22;526;51.392;12.448;2024-02-04T20:31:40;8.60;97.30
1075;DHT22;526;51.392;12.448;2024-02-04T20:34:13;8.60;97.30
1075;DHT22;526;51.392;12.448;2024-02-04T20:36:38;8.60;97.30
1075;DHT22;526;51.392;12.448;2024-02-04T20:39:04;8.60;97.30
1075;DHT22;526;51.392;12.448;2024-02-04T20:41:31;8.60;97.30
1075;DHT22;526;51.392;12.448;2024-02-04T20:43:56;8.60;97.30
1075;DHT22;526;51.392;12.448;2024-02-04T20:46:22;8.60;97.30
1075;DHT22;526;51.392;12.448;2024-02-04T20:48:48;8.60;97.30
1075;DHT22;526;51.392;12.448;2024-02-04T20:51:14;8.60;97.30
1075;DHT22;526;51.392;12.448;2024-02-04T20:53:41;8.60;97.30
1075;DHT22;526;51.392;12.448;2024-02-04T20:56:06;8.70;97.30
1075;DHT22;526;51.392;12.448;2024-02-04T20:58:32;8.70;97.30
1075;DHT22;526;51.392;12.448;2024-02-04T21:00:59;8.70;97.30
1075;DHT22;526;51.392;12.448;2024-02-04T21:03:24;8.70;97.30
1075;DHT22;526;51.392;12.448;2024-02-04T21:05:50;8.80;97.30
1075;DHT22;526;51.392;12.448;2024-02-04T21:08:15;8.80;97.30
1075;DHT22;526;51.392;12.448;2024-02-04T21:10:41;8.80;97.30
1075;DHT22;526;51.392;12.448;2024-02-04T21:13:07;8.90;97.30
1075;DHT22;526;51.392;12.448;2024-02-04T21:15:33;8.90;97.30
1075;DHT22;526;51.392;12.448;2024-02-04T21:18:00;8.90;97.30
1075;DHT22;526;51.392;12.448;2024-02-04T21:20:26;9.00;97.30
1075;DHT22;526;51.392;12.448;2024-02-04T21:22:54;9.10;97.30
1075;DHT22;526;51.392;12.448;2024-02-04T21:25:19;9.10;97.30
1075;DHT22;526;51.392;12.448;2024-02-04T21:27:45;9.20;97.30
1075;DHT22;526;51.392;12.448;2024-02-04T21:30:10;9.20;97.30
1075;DHT22;526;51.392;12.448;2024-02-04T21:32:36;9.30;97.30
1075;DHT22;526;51.392;12.448;2024-02-04T21:35:02;9.30;97.30
1075;DHT22;526;51.392;12.448;2024-02-04T21:37:28;9.30;97.30
1075;DHT22;526;51.392;12.448;2024-02-04T21:39:55;9.40;97.30
1075;DHT22;526;51.392;12.448;2024-02-04T21:42:20;9.40;97.30
1075;DHT22;526;51.392;12.448;2024-02-04T21:44:46;9.40;97.30
1075;DHT22;526;51.392;12.448;2024-02-04T21:47:12;9.50;97.30
1075;DHT22;526;51.392;12.448;2024-02-04T21:49:40;9.50;97.30
1075;DHT22;526;51.392;12.448;2024-02-04T21:52:06;9.50;97.30
1075;DHT22;526;51.392;12.448;2024-02-04T21:54:32;9.60;97.30